Terminal Aerodrome Forecast
Issued by NWS

Current Version | Previous Version | Text Only | Print | Product List | Glossary On
Versions: 1 2 3 4 5 6 7 8 9 10 11 12
000
FTUS41 KCAR 060550 RRA
TAFFVE
TAF
KFVE 060550Z 0606/0706 00000KT P6SM BKN250
     FM060900 00000KT 3SM BR SKC
     FM061200 20004KT P6SM SKC=

USA.gov is the U.S. government's official web portal to all federal, state and local government web resources and services.